createdAt,value
2023-05-01T00:00:47.892Z,9.80
2023-05-01T00:04:00.809Z,9.32
2023-05-01T00:07:13.291Z,10.48
2023-05-01T00:10:25.914Z,10.52
2023-05-01T00:13:38.336Z,10.02
2023-05-01T00:16:51.330Z,10.30
2023-05-01T00:20:05.398Z,8.55
2023-05-01T00:23:18.371Z,9.38
2023-05-01T00:26:31.543Z,8.23
2023-05-01T00:29:44.253Z,9.18
2023-05-01T00:32:56.682Z,9.30
2023-05-01T00:36:10.056Z,8.95
2023-05-01T00:39:22.430Z,9.48
2023-05-01T00:42:36.432Z,10.20
2023-05-01T00:45:48.847Z,11.95
2023-05-01T00:49:01.665Z,14.18
2023-05-01T00:52:13.997Z,10.68
2023-05-01T00:55:26.734Z,8.80
2023-05-01T00:58:39.134Z,10.90
2023-05-01T01:01:54.347Z,10.88
2023-05-01T01:05:08.062Z,8.95
2023-05-01T01:08:32.040Z,9.77
2023-05-01T01:11:49.490Z,8.77
2023-05-01T01:15:08.242Z,7.40
2023-05-01T01:18:26.471Z,9.10
2023-05-01T01:21:40.772Z,9.15
2023-05-01T01:24:59.469Z,9.20
2023-05-01T01:28:21.966Z,10.18
2023-05-01T01:31:39.758Z,9.98
2023-05-01T01:34:54.549Z,11.73
2023-05-01T01:38:13.023Z,8.80
2023-05-01T01:41:29.476Z,8.75
2023-05-01T01:44:43.466Z,13.18
2023-05-01T01:47:56.272Z,8.52
2023-05-01T01:51:12.249Z,8.70
2023-05-01T01:54:36.600Z,8.20
2023-05-01T01:57:48.926Z,9.82
2023-05-01T02:01:01.552Z,8.73
2023-05-01T02:04:14.303Z,9.00
2023-05-01T02:07:27.052Z,12.80
2023-05-01T02:10:40.653Z,8.65
2023-05-01T02:13:53.015Z,10.90
2023-05-01T02:17:05.827Z,9.18
2023-05-01T02:20:18.228Z,7.10
2023-05-01T02:23:31.243Z,11.45
2023-05-01T02:26:45.703Z,8.07
2023-05-01T02:29:58.301Z,9.95
2023-05-01T02:33:11.243Z,6.15
2023-05-01T02:36:23.722Z,8.30
2023-05-01T02:39:36.414Z,6.72
2023-05-01T02:42:48.940Z,10.75
2023-05-01T02:46:02.246Z,7.85
2023-05-01T02:49:15.185Z,10.60
2023-05-01T02:52:28.312Z,8.65
2023-05-01T02:55:43.088Z,6.87
2023-05-01T02:58:55.911Z,10.57
2023-05-01T03:02:08.360Z,8.48
2023-05-01T03:05:21.044Z,6.87
2023-05-01T03:08:33.378Z,7.30
2023-05-01T03:11:46.137Z,9.05
2023-05-01T03:14:58.577Z,8.32
2023-05-01T03:18:11.224Z,7.05
2023-05-01T03:21:24.612Z,6.70
2023-05-01T03:24:37.205Z,6.37
2023-05-01T03:27:50.090Z,4.72
2023-05-01T03:31:02.856Z,6.32
2023-05-01T03:34:15.570Z,10.60
2023-05-01T03:37:28.570Z,8.45
2023-05-01T03:40:41.042Z,5.22
2023-05-01T03:43:56.477Z,7.82
2023-05-01T03:47:10.363Z,5.05
2023-05-01T03:50:23.574Z,5.10
2023-05-01T03:53:36.876Z,5.68
2023-05-01T03:56:50.143Z,4.53
2023-05-01T04:00:05.534Z,6.40
2023-05-01T04:03:27.575Z,8.02
2023-05-01T04:06:41.800Z,5.57
2023-05-01T04:09:54.479Z,6.07
2023-05-01T04:13:07.515Z,5.60
2023-05-01T04:16:20.582Z,5.70
2023-05-01T04:19:34.854Z,6.75
2023-05-01T04:22:47.777Z,10.25
2023-05-01T04:26:00.420Z,6.03
2023-05-01T04:29:12.793Z,5.93
2023-05-01T04:32:26.223Z,6.35
2023-05-01T04:35:39.260Z,5.87
2023-05-01T04:38:52.374Z,7.32
2023-05-01T04:42:05.053Z,6.47
2023-05-01T04:45:17.833Z,9.13
2023-05-01T04:48:30.407Z,4.35
2023-05-01T04:51:43.213Z,5.82
2023-05-01T04:54:57.905Z,4.90
2023-05-01T04:58:11.744Z,6.87
2023-05-01T05:01:24.826Z,5.28
2023-05-01T05:04:37.864Z,6.22
2023-05-01T05:07:50.361Z,4.90
2023-05-01T05:11:05.873Z,4.28
2023-05-01T05:14:19.414Z,9.55
2023-05-01T05:17:32.146Z,6.05
2023-05-01T05:20:44.621Z,8.05
2023-05-01T05:23:57.469Z,4.25
2023-05-01T05:27:09.886Z,7.78
2023-05-01T05:30:22.658Z,8.80
2023-05-01T05:33:35.005Z,5.85
2023-05-01T05:36:47.768Z,5.80
2023-05-01T05:40:00.566Z,5.93
2023-05-01T05:43:14.008Z,4.37
2023-05-01T05:46:26.656Z,9.88
2023-05-01T05:49:39.409Z,8.05
2023-05-01T05:52:52.265Z,7.10
2023-05-01T05:56:05.314Z,3.87
2023-05-01T05:59:18.695Z,5.40
2023-05-01T06:02:32.400Z,7.10
2023-05-01T06:05:45.525Z,7.70
2023-05-01T06:08:58.068Z,4.05
2023-05-01T06:12:10.763Z,6.25
2023-05-01T06:15:24.853Z,4.80
2023-05-01T06:18:37.752Z,8.23
2023-05-01T06:21:50.829Z,6.35
2023-05-01T06:25:04.294Z,6.05
2023-05-01T06:28:16.852Z,6.00
2023-05-01T06:31:29.535Z,3.85
2023-05-01T06:34:42.343Z,7.15
2023-05-01T06:37:56.113Z,7.97
2023-05-01T06:41:08.518Z,6.85
2023-05-01T06:44:21.215Z,5.80
2023-05-01T06:47:33.663Z,5.93
2023-05-01T06:50:46.577Z,3.33
2023-05-01T06:53:59.253Z,6.68
2023-05-01T06:57:11.957Z,4.47
2023-05-01T07:00:24.350Z,5.45
2023-05-01T07:03:37.105Z,4.47
2023-05-01T07:06:49.780Z,3.92
2023-05-01T07:10:02.526Z,6.20
2023-05-01T07:13:14.916Z,4.20
2023-05-01T07:16:27.596Z,5.72
2023-05-01T07:19:40.105Z,5.85
2023-05-01T07:22:52.748Z,5.22
2023-05-01T07:26:05.757Z,5.57
2023-05-01T07:29:19.679Z,9.07
2023-05-01T07:32:33.163Z,6.90
2023-05-01T07:35:46.490Z,6.70
2023-05-01T07:38:58.896Z,4.93
2023-05-01T07:42:11.511Z,6.50
2023-05-01T07:45:23.826Z,7.60
2023-05-01T07:48:38.851Z,4.75
2023-05-01T07:51:51.741Z,5.32
2023-05-01T07:55:05.522Z,5.30
2023-05-01T07:58:17.841Z,4.50
2023-05-01T08:01:30.620Z,6.78
2023-05-01T08:04:43.309Z,5.37
2023-05-01T08:07:55.682Z,5.62
2023-05-01T08:11:09.013Z,3.35
2023-05-01T08:14:21.353Z,4.22
2023-05-01T08:17:35.594Z,4.07
2023-05-01T08:20:48.375Z,4.55
2023-05-01T08:24:01.359Z,5.22
2023-05-01T08:27:13.703Z,6.32
2023-05-01T08:30:26.399Z,4.95
2023-05-01T08:33:42.006Z,6.87
2023-05-01T08:36:54.707Z,6.43
2023-05-01T08:40:10.370Z,3.60
2023-05-01T08:43:24.278Z,7.85
2023-05-01T08:46:50.692Z,3.90
2023-05-01T08:50:03.534Z,4.57
2023-05-01T08:53:16.159Z,4.10
2023-05-01T08:56:28.874Z,6.60
2023-05-01T08:59:41.336Z,5.75
2023-05-01T09:02:54.018Z,4.47
2023-05-01T09:06:06.521Z,7.05
2023-05-01T09:09:19.203Z,5.37
2023-05-01T09:12:35.442Z,7.68
2023-05-01T09:15:48.161Z,5.95
2023-05-01T09:19:00.634Z,5.12
2023-05-01T09:22:13.271Z,6.18
2023-05-01T09:25:25.636Z,4.70
2023-05-01T09:28:48.131Z,9.10
2023-05-01T09:32:13.947Z,6.07
2023-05-01T09:35:27.032Z,4.40
2023-05-01T09:38:39.379Z,4.50
2023-05-01T09:41:54.840Z,7.28
2023-05-01T09:45:13.335Z,4.75
2023-05-01T09:48:25.951Z,5.87
2023-05-01T09:51:38.310Z,5.15
2023-05-01T09:54:50.986Z,5.20
2023-05-01T09:58:03.709Z,5.43
2023-05-01T10:01:16.545Z,5.62
2023-05-01T10:04:33.247Z,5.43
2023-05-01T10:08:15.126Z,6.70
2023-05-01T10:11:28.018Z,4.12
2023-05-01T10:14:58.518Z,6.55
2023-05-01T10:18:14.663Z,3.20
2023-05-01T10:21:27.935Z,6.45
2023-05-01T10:24:40.722Z,5.97
2023-05-01T10:27:53.084Z,4.43
2023-05-01T10:31:05.954Z,6.40
2023-05-01T10:34:18.656Z,4.80
2023-05-01T10:37:47.182Z,6.87
2023-05-01T10:40:59.499Z,4.95
2023-05-01T10:44:26.400Z,5.50
2023-05-01T10:47:44.283Z,3.60
2023-05-01T10:51:17.903Z,7.12
2023-05-01T10:54:30.552Z,5.82
2023-05-01T10:57:46.599Z,5.60
2023-05-01T11:01:30.173Z,6.90
2023-05-01T11:04:48.412Z,4.20
2023-05-01T11:08:29.502Z,4.53
2023-05-01T11:11:45.759Z,5.07
2023-05-01T11:15:02.987Z,5.10
2023-05-01T11:18:15.712Z,5.03
2023-05-01T11:21:34.882Z,4.28
2023-05-01T11:24:48.098Z,5.35
2023-05-01T11:28:01.920Z,6.10
2023-05-01T11:31:21.006Z,5.68
2023-05-01T11:34:37.899Z,4.85
2023-05-01T11:37:56.192Z,2.47
2023-05-01T11:41:08.635Z,6.35
2023-05-01T11:44:21.250Z,5.22
2023-05-01T11:47:34.153Z,3.20
2023-05-01T11:50:46.958Z,5.95
2023-05-01T11:54:07.118Z,3.28
2023-05-01T11:57:20.273Z,3.67
2023-05-01T12:00:38.058Z,5.03
2023-05-01T12:03:50.898Z,4.70
2023-05-01T12:07:03.616Z,4.78
2023-05-01T12:10:16.553Z,5.18
2023-05-01T12:13:28.881Z,5.90
2023-05-01T12:16:42.439Z,4.05
2023-05-01T12:19:54.855Z,5.78
2023-05-01T12:23:08.372Z,3.80
2023-05-01T12:26:25.306Z,4.50
2023-05-01T12:29:47.164Z,6.03
2023-05-01T12:33:00.239Z,3.33
2023-05-01T12:36:12.992Z,5.65
2023-05-01T12:39:26.184Z,4.35
2023-05-01T12:42:38.797Z,2.70
2023-05-01T12:45:52.484Z,4.05
2023-05-01T12:49:05.093Z,5.37
2023-05-01T12:52:17.430Z,6.03
2023-05-01T12:55:30.102Z,3.87
2023-05-01T12:58:42.414Z,3.53
2023-05-01T13:02:01.780Z,4.35
2023-05-01T13:05:14.143Z,4.35
2023-05-01T13:08:34.284Z,3.25
2023-05-01T13:12:00.581Z,4.68
2023-05-01T13:15:21.142Z,3.12
2023-05-01T13:18:33.747Z,3.87
2023-05-01T13:21:48.273Z,4.03
2023-05-01T13:25:01.362Z,3.62
2023-05-01T13:28:18.811Z,5.30
2023-05-01T13:31:31.389Z,2.22
2023-05-01T13:34:44.056Z,2.58
2023-05-01T13:37:56.375Z,4.65
2023-05-01T13:41:12.949Z,2.83
2023-05-01T13:44:25.333Z,3.25
2023-05-01T13:47:40.431Z,5.53
2023-05-01T13:50:52.904Z,3.37
2023-05-01T13:54:07.553Z,3.08
2023-05-01T13:57:19.938Z,3.17
2023-05-01T14:00:32.651Z,2.28
2023-05-01T14:03:45.415Z,3.10
2023-05-01T14:07:00.049Z,4.55
2023-05-01T14:10:12.724Z,2.83
2023-05-01T14:13:25.773Z,2.60
2023-05-01T14:16:38.540Z,2.60
2023-05-01T14:19:54.777Z,4.25
2023-05-01T14:23:07.583Z,8.10
2023-05-01T14:26:20.230Z,2.80
2023-05-01T14:29:32.887Z,2.70
2023-05-01T14:32:45.301Z,2.75
2023-05-01T14:35:58.308Z,5.03
2023-05-01T14:39:10.712Z,3.95
2023-05-01T14:42:23.361Z,3.12
2023-05-01T14:45:41.833Z,3.72
2023-05-01T14:48:54.917Z,2.85
2023-05-01T14:52:08.893Z,4.50
2023-05-01T14:55:31.185Z,4.00
2023-05-01T14:58:43.545Z,3.72
2023-05-01T15:01:56.221Z,2.72
2023-05-01T15:05:08.871Z,2.72
2023-05-01T15:08:21.821Z,3.22
2023-05-01T15:11:34.216Z,3.83
2023-05-01T15:14:46.835Z,4.53
2023-05-01T15:17:59.314Z,3.75
2023-05-01T15:21:12.065Z,2.45
2023-05-01T15:24:24.427Z,2.35
2023-05-01T15:27:37.098Z,3.53
2023-05-01T15:30:49.512Z,3.72
2023-05-01T15:34:02.827Z,4.75
2023-05-01T15:37:15.449Z,3.10
2023-05-01T15:40:28.107Z,2.60
2023-05-01T15:43:41.101Z,4.10
2023-05-01T15:46:53.849Z,4.07
2023-05-01T15:50:11.861Z,3.53
2023-05-01T15:53:24.565Z,4.12
2023-05-01T15:56:37.315Z,3.97
2023-05-01T15:59:54.001Z,5.22
2023-05-01T16:03:07.904Z,4.72
2023-05-01T16:06:20.706Z,3.50
2023-05-01T16:09:33.098Z,6.35
2023-05-01T16:12:46.477Z,2.87
2023-05-01T16:15:58.847Z,5.03
2023-05-01T16:19:11.940Z,3.35
2023-05-01T16:22:24.272Z,3.70
2023-05-01T16:25:36.897Z,3.37
2023-05-01T16:28:49.695Z,3.70
2023-05-01T16:32:04.091Z,5.47
2023-05-01T16:35:17.845Z,5.82
2023-05-01T16:38:30.669Z,6.15
2023-05-01T16:41:47.209Z,3.87
2023-05-01T16:48:13.546Z,5.43
2023-05-01T16:51:26.415Z,5.57
2023-05-01T16:54:38.756Z,5.28
2023-05-01T16:57:51.626Z,6.10
2023-05-01T17:01:04.049Z,5.78
2023-05-01T17:04:16.738Z,4.07
2023-05-01T17:07:29.136Z,4.55
2023-05-01T17:10:41.821Z,5.82
2023-05-01T17:13:54.158Z,4.55
2023-05-01T17:17:09.365Z,8.27
2023-05-01T17:20:22.591Z,5.60
2023-05-01T17:23:35.288Z,5.65
2023-05-01T17:26:47.732Z,6.53
2023-05-01T17:30:00.823Z,7.07
2023-05-01T17:33:15.124Z,3.25
2023-05-01T17:36:29.234Z,3.60
2023-05-01T17:39:41.687Z,3.60
2023-05-01T17:42:54.332Z,6.22
2023-05-01T17:46:06.800Z,4.68
2023-05-01T17:49:19.514Z,4.12
2023-05-01T17:52:31.932Z,6.15
2023-05-01T17:55:44.555Z,3.25
2023-05-01T17:58:56.966Z,5.40
2023-05-01T18:02:09.900Z,4.87
2023-05-01T18:05:22.799Z,8.65
2023-05-01T18:08:35.137Z,9.13
2023-05-01T18:11:47.734Z,13.65
2023-05-01T18:15:00.138Z,12.37
2023-05-01T18:18:13.290Z,6.32
2023-05-01T18:21:27.821Z,5.40
2023-05-01T18:24:41.772Z,5.32
2023-05-01T18:27:58.714Z,4.45
2023-05-01T18:31:11.534Z,5.07
2023-05-01T18:34:23.916Z,5.10
2023-05-01T18:37:36.757Z,6.85
2023-05-01T18:40:49.189Z,3.80
2023-05-01T18:44:02.539Z,5.00
2023-05-01T18:47:14.940Z,6.40
2023-05-01T18:50:27.686Z,3.67
2023-05-01T18:53:40.310Z,6.47
2023-05-01T18:56:52.956Z,5.10
2023-05-01T19:00:06.682Z,6.25
2023-05-01T19:03:19.719Z,7.95
2023-05-01T19:06:32.674Z,6.93
2023-05-01T19:09:45.784Z,8.80
2023-05-01T19:12:58.091Z,12.55
2023-05-01T19:16:11.609Z,9.25
2023-05-01T19:19:24.067Z,8.77
2023-05-01T19:22:36.768Z,6.43
2023-05-01T19:25:49.112Z,6.53
2023-05-01T19:29:01.728Z,9.82
2023-05-01T19:32:14.427Z,13.43
2023-05-01T19:35:27.161Z,19.90
2023-05-01T19:38:39.506Z,16.80
2023-05-01T19:41:52.287Z,21.98
2023-05-01T19:45:05.005Z,12.37
2023-05-01T19:48:17.731Z,14.60
2023-05-01T19:51:30.113Z,13.73
2023-05-01T19:54:44.930Z,14.73
2023-05-01T19:57:57.383Z,15.10
2023-05-01T20:01:11.840Z,13.90
2023-05-01T20:04:24.694Z,11.45
2023-05-01T20:07:37.420Z,8.80
2023-05-01T20:10:50.101Z,10.95
2023-05-01T20:14:04.102Z,13.82
2023-05-01T20:17:16.795Z,23.25
2023-05-01T20:20:29.521Z,12.88
2023-05-01T20:23:42.869Z,10.27
2023-05-01T20:26:55.987Z,10.88
2023-05-01T20:30:11.226Z,9.77
2023-05-01T20:33:23.677Z,15.18
2023-05-01T20:36:36.310Z,10.48
2023-05-01T20:39:48.753Z,10.88
2023-05-01T20:43:01.794Z,10.27
2023-05-01T20:46:14.355Z,9.00
2023-05-01T20:49:28.485Z,8.07
2023-05-01T20:52:41.225Z,9.77
2023-05-01T20:55:53.970Z,8.52
2023-05-01T20:59:06.623Z,6.85
2023-05-01T21:02:19.281Z,7.90
2023-05-01T21:05:31.584Z,5.70
2023-05-01T21:08:44.283Z,5.40
2023-05-01T21:11:56.637Z,5.93
2023-05-01T21:15:09.843Z,6.87
2023-05-01T21:18:22.347Z,5.82
2023-05-01T21:21:36.266Z,6.12
2023-05-01T21:24:59.423Z,6.50
2023-05-01T21:28:15.212Z,6.72
2023-05-01T21:31:30.173Z,7.03
2023-05-01T21:34:42.856Z,8.70
2023-05-01T21:37:55.319Z,8.07
2023-05-01T21:41:08.527Z,9.27
2023-05-01T21:44:21.045Z,6.28
2023-05-01T21:47:38.700Z,8.20
2023-05-01T21:50:51.464Z,9.75
2023-05-01T21:54:04.076Z,8.88
2023-05-01T21:57:16.519Z,6.90
2023-05-01T22:00:30.041Z,9.75
2023-05-01T22:03:44.613Z,5.53
2023-05-01T22:06:57.553Z,6.20
2023-05-01T22:10:14.080Z,10.80
2023-05-01T22:13:33.208Z,8.15
2023-05-01T22:16:45.991Z,7.53
2023-05-01T22:19:58.531Z,8.90
2023-05-01T22:23:11.370Z,6.22
2023-05-01T22:26:23.785Z,6.00
2023-05-01T22:29:36.433Z,7.85
2023-05-01T22:32:48.857Z,7.32
2023-05-01T22:36:01.474Z,6.55
2023-05-01T22:39:13.785Z,6.50
2023-05-01T22:42:26.452Z,7.30
2023-05-01T22:45:39.617Z,6.87
2023-05-01T22:48:52.285Z,7.68
2023-05-01T22:52:04.815Z,5.28
2023-05-01T22:55:17.757Z,5.43
2023-05-01T22:58:30.196Z,7.32
2023-05-01T23:01:43.105Z,5.75
2023-05-01T23:04:55.566Z,6.85
2023-05-01T23:08:08.452Z,4.85
2023-05-01T23:11:21.447Z,8.55
2023-05-01T23:14:36.164Z,8.95
2023-05-01T23:17:48.508Z,6.97
2023-05-01T23:21:01.147Z,5.57
2023-05-01T23:24:16.198Z,10.13
2023-05-01T23:27:29.634Z,5.62
2023-05-01T23:30:41.978Z,6.80
2023-05-01T23:33:55.447Z,7.25
2023-05-01T23:37:07.851Z,5.90
2023-05-01T23:40:20.503Z,7.65
2023-05-01T23:43:33.496Z,5.95
2023-05-01T23:46:46.844Z,5.70
2023-05-01T23:49:59.489Z,5.57
2023-05-01T23:53:12.461Z,5.68
2023-05-01T23:56:24.781Z,5.93
2023-05-01T23:59:37.606Z,5.43
